sensor_id;sensor_type;location;lat;lon;timestamp;temperature;humidity
5560;DHT22;2803;47.916;8.074;2023-03-16T00:00:14;4.20;99.90
5560;DHT22;2803;47.916;8.074;2023-03-16T00:02:42;3.90;99.90
5560;DHT22;2803;47.916;8.074;2023-03-16T00:05:10;3.60;99.90
5560;DHT22;2803;47.916;8.074;2023-03-16T00:07:38;3.50;99.90
5560;DHT22;2803;47.916;8.074;2023-03-16T00:10:06;4.00;99.90
5560;DHT22;2803;47.916;8.074;2023-03-16T00:12:33;3.70;99.90
5560;DHT22;2803;47.916;8.074;2023-03-16T00:15:01;3.80;99.90
5560;DHT22;2803;47.916;8.074;2023-03-16T00:17:29;3.40;99.90
5560;DHT22;2803;47.916;8.074;2023-03-16T00:19:56;2.90;99.90
5560;DHT22;2803;47.916;8.074;2023-03-16T00:22:24;2.50;99.90
5560;DHT22;2803;47.916;8.074;2023-03-16T00:24:51;2.40;99.90
5560;DHT22;2803;47.916;8.074;2023-03-16T00:27:18;2.20;99.90
5560;DHT22;2803;47.916;8.074;2023-03-16T00:29:48;2.30;99.90
5560;DHT22;2803;47.916;8.074;2023-03-16T00:32:22;1.90;99.90
5560;DHT22;2803;47.916;8.074;2023-03-16T00:34:49;2.20;99.90
5560;DHT22;2803;47.916;8.074;2023-03-16T00:37:18;2.40;99.90
5560;DHT22;2803;47.916;8.074;2023-03-16T00:39:45;2.50;99.90
5560;DHT22;2803;47.916;8.074;2023-03-16T00:42:13;2.50;99.90
5560;DHT22;2803;47.916;8.074;2023-03-16T00:44:40;2.40;99.90
5560;DHT22;2803;47.916;8.074;2023-03-16T00:47:07;2.30;99.90
5560;DHT22;2803;47.916;8.074;2023-03-16T00:49:35;2.40;99.90
5560;DHT22;2803;47.916;8.074;2023-03-16T00:52:03;2.70;99.90
5560;DHT22;2803;47.916;8.074;2023-03-16T00:54:30;2.60;99.90
5560;DHT22;2803;47.916;8.074;2023-03-16T00:56:58;3.20;99.90
5560;DHT22;2803;47.916;8.074;2023-03-16T00:59:25;3.60;99.90
5560;DHT22;2803;47.916;8.074;2023-03-16T01:01:52;3.40;99.90
5560;DHT22;2803;47.916;8.074;2023-03-16T01:04:18;3.90;99.90
5560;DHT22;2803;47.916;8.074;2023-03-16T01:06:47;3.80;99.90
5560;DHT22;2803;47.916;8.074;2023-03-16T01:09:14;3.90;99.90
5560;DHT22;2803;47.916;8.074;2023-03-16T01:11:41;3.90;99.90
5560;DHT22;2803;47.916;8.074;2023-03-16T01:14:08;3.80;99.90
5560;DHT22;2803;47.916;8.074;2023-03-16T01:16:35;3.30;99.90
5560;DHT22;2803;47.916;8.074;2023-03-16T01:19:02;2.70;99.90
5560;DHT22;2803;47.916;8.074;2023-03-16T01:21:29;2.10;99.90
5560;DHT22;2803;47.916;8.074;2023-03-16T01:23:59;1.80;99.90
5560;DHT22;2803;47.916;8.074;2023-03-16T01:26:26;2.40;99.90
5560;DHT22;2803;47.916;8.074;2023-03-16T01:28:52;2.80;99.90
5560;DHT22;2803;47.916;8.074;2023-03-16T01:31:19;2.70;99.90
5560;DHT22;2803;47.916;8.074;2023-03-16T01:33:46;2.20;99.90
5560;DHT22;2803;47.916;8.074;2023-03-16T01:36:15;2.40;99.90
5560;DHT22;2803;47.916;8.074;2023-03-16T01:38:43;2.50;99.90
5560;DHT22;2803;47.916;8.074;2023-03-16T01:41:11;2.30;99.90
5560;DHT22;2803;47.916;8.074;2023-03-16T01:43:39;2.50;99.90
5560;DHT22;2803;47.916;8.074;2023-03-16T01:46:14;3.00;99.90
5560;DHT22;2803;47.916;8.074;2023-03-16T01:48:46;2.60;99.90
5560;DHT22;2803;47.916;8.074;2023-03-16T01:51:18;2.60;99.90
5560;DHT22;2803;47.916;8.074;2023-03-16T01:53:48;2.90;99.90
5560;DHT22;2803;47.916;8.074;2023-03-16T01:56:22;3.10;99.90
5560;DHT22;2803;47.916;8.074;2023-03-16T01:58:50;3.10;99.90
5560;DHT22;2803;47.916;8.074;2023-03-16T02:01:18;3.00;99.90
5560;DHT22;2803;47.916;8.074;2023-03-16T02:03:45;3.20;99.90
5560;DHT22;2803;47.916;8.074;2023-03-16T02:06:15;2.80;99.90
5560;DHT22;2803;47.916;8.074;2023-03-16T02:08:43;2.90;99.90
5560;DHT22;2803;47.916;8.074;2023-03-16T02:11:11;3.10;99.90
5560;DHT22;2803;47.916;8.074;2023-03-16T02:13:43;2.90;99.90
5560;DHT22;2803;47.916;8.074;2023-03-16T02:16:11;3.20;99.90
5560;DHT22;2803;47.916;8.074;2023-03-16T02:18:38;3.30;99.90
5560;DHT22;2803;47.916;8.074;2023-03-16T02:21:13;3.50;99.90
5560;DHT22;2803;47.916;8.074;2023-03-16T02:23:42;3.70;99.90
5560;DHT22;2803;47.916;8.074;2023-03-16T02:26:15;3.50;99.90
5560;DHT22;2803;47.916;8.074;2023-03-16T02:28:56;2.80;99.90
5560;DHT22;2803;47.916;8.074;2023-03-16T02:31:28;2.70;99.90
5560;DHT22;2803;47.916;8.074;2023-03-16T02:33:55;2.10;99.90
5560;DHT22;2803;47.916;8.074;2023-03-16T02:36:22;2.50;99.90
5560;DHT22;2803;47.916;8.074;2023-03-16T02:38:49;2.30;99.90
5560;DHT22;2803;47.916;8.074;2023-03-16T02:41:17;2.40;99.90
5560;DHT22;2803;47.916;8.074;2023-03-16T02:43:47;2.30;99.90
5560;DHT22;2803;47.916;8.074;2023-03-16T02:46:17;2.40;99.90
5560;DHT22;2803;47.916;8.074;2023-03-16T02:48:51;2.40;99.90
5560;DHT22;2803;47.916;8.074;2023-03-16T02:51:20;2.40;99.90
5560;DHT22;2803;47.916;8.074;2023-03-16T02:53:46;2.20;99.90
5560;DHT22;2803;47.916;8.074;2023-03-16T02:56:13;1.80;99.90
5560;DHT22;2803;47.916;8.074;2023-03-16T02:58:39;2.10;99.90
5560;DHT22;2803;47.916;8.074;2023-03-16T03:01:06;1.60;99.90
5560;DHT22;2803;47.916;8.074;2023-03-16T03:03:33;1.00;99.90
5560;DHT22;2803;47.916;8.074;2023-03-16T03:06:01;0.50;99.90
5560;DHT22;2803;47.916;8.074;2023-03-16T03:08:27;0.70;99.90
5560;DHT22;2803;47.916;8.074;2023-03-16T03:10:54;0.80;99.90
5560;DHT22;2803;47.916;8.074;2023-03-16T03:13:20;1.20;99.90
5560;DHT22;2803;47.916;8.074;2023-03-16T03:15:48;1.60;99.90
5560;DHT22;2803;47.916;8.074;2023-03-16T03:18:15;1.30;99.90
5560;DHT22;2803;47.916;8.074;2023-03-16T03:20:41;0.70;99.90
5560;DHT22;2803;47.916;8.074;2023-03-16T03:23:09;1.00;99.90
5560;DHT22;2803;47.916;8.074;2023-03-16T03:25:36;1.30;99.90
5560;DHT22;2803;47.916;8.074;2023-03-16T03:28:03;1.50;99.90
5560;DHT22;2803;47.916;8.074;2023-03-16T03:30:30;1.30;99.90
5560;DHT22;2803;47.916;8.074;2023-03-16T03:32:57;0.80;99.90
5560;DHT22;2803;47.916;8.074;2023-03-16T03:35:24;1.00;99.90
5560;DHT22;2803;47.916;8.074;2023-03-16T03:37:50;1.50;99.90
5560;DHT22;2803;47.916;8.074;2023-03-16T03:40:19;1.30;99.90
5560;DHT22;2803;47.916;8.074;2023-03-16T03:42:47;1.40;99.90
5560;DHT22;2803;47.916;8.074;2023-03-16T03:45:14;1.60;99.90
5560;DHT22;2803;47.916;8.074;2023-03-16T03:47:41;1.20;99.90
5560;DHT22;2803;47.916;8.074;2023-03-16T03:50:09;0.80;99.90
5560;DHT22;2803;47.916;8.074;2023-03-16T03:52:36;0.80;99.90
5560;DHT22;2803;47.916;8.074;2023-03-16T03:55:03;0.90;99.90
5560;DHT22;2803;47.916;8.074;2023-03-16T03:57:31;1.40;99.90
5560;DHT22;2803;47.916;8.074;2023-03-16T03:59:58;1.70;99.90
5560;DHT22;2803;47.916;8.074;2023-03-16T04:02:25;1.90;99.90
5560;DHT22;2803;47.916;8.074;2023-03-16T04:04:51;1.70;99.90
5560;DHT22;2803;47.916;8.074;2023-03-16T04:07:18;1.80;99.90
5560;DHT22;2803;47.916;8.074;2023-03-16T04:09:45;1.50;99.90
5560;DHT22;2803;47.916;8.074;2023-03-16T04:12:11;1.20;99.90
5560;DHT22;2803;47.916;8.074;2023-03-16T04:14:39;1.20;99.90
5560;DHT22;2803;47.916;8.074;2023-03-16T04:17:06;1.20;99.90
5560;DHT22;2803;47.916;8.074;2023-03-16T04:19:33;1.30;99.90
5560;DHT22;2803;47.916;8.074;2023-03-16T04:21:59;1.30;99.90
5560;DHT22;2803;47.916;8.074;2023-03-16T04:24:26;1.70;99.90
5560;DHT22;2803;47.916;8.074;2023-03-16T04:26:52;1.60;99.90
5560;DHT22;2803;47.916;8.074;2023-03-16T04:29:19;1.50;99.90
5560;DHT22;2803;47.916;8.074;2023-03-16T04:31:47;1.10;99.90
5560;DHT22;2803;47.916;8.074;2023-03-16T04:34:15;0.50;99.90
5560;DHT22;2803;47.916;8.074;2023-03-16T04:36:41;0.80;99.90
5560;DHT22;2803;47.916;8.074;2023-03-16T04:39:08;0.60;99.90
5560;DHT22;2803;47.916;8.074;2023-03-16T04:41:35;0.60;99.90
5560;DHT22;2803;47.916;8.074;2023-03-16T04:44:01;0.90;99.90
5560;DHT22;2803;47.916;8.074;2023-03-16T04:46:30;1.20;99.90
5560;DHT22;2803;47.916;8.074;2023-03-16T04:48:58;1.30;99.90
5560;DHT22;2803;47.916;8.074;2023-03-16T04:51:24;1.30;99.90
5560;DHT22;2803;47.916;8.074;2023-03-16T04:53:51;0.60;99.90
5560;DHT22;2803;47.916;8.074;2023-03-16T04:56:18;0.20;99.90
5560;DHT22;2803;47.916;8.074;2023-03-16T04:58:45;-0.20;99.90
5560;DHT22;2803;47.916;8.074;2023-03-16T05:01:11;-0.10;99.90
5560;DHT22;2803;47.916;8.074;2023-03-16T05:03:39;0.40;99.90
5560;DHT22;2803;47.916;8.074;2023-03-16T05:06:07;0.30;99.90
5560;DHT22;2803;47.916;8.074;2023-03-16T05:08:34;0.30;99.90
5560;DHT22;2803;47.916;8.074;2023-03-16T05:11:01;0.20;99.90
5560;DHT22;2803;47.916;8.074;2023-03-16T05:13:28;0.30;99.90
5560;DHT22;2803;47.916;8.074;2023-03-16T05:15:55;0.40;99.90
5560;DHT22;2803;47.916;8.074;2023-03-16T05:18:22;0.40;99.90
5560;DHT22;2803;47.916;8.074;2023-03-16T05:20:50;0.20;99.90
5560;DHT22;2803;47.916;8.074;2023-03-16T05:23:18;0.30;99.90
5560;DHT22;2803;47.916;8.074;2023-03-16T05:25:45;0.60;99.90
5560;DHT22;2803;47.916;8.074;2023-03-16T05:28:12;0.60;99.90
5560;DHT22;2803;47.916;8.074;2023-03-16T05:30:39;0.30;99.90
5560;DHT22;2803;47.916;8.074;2023-03-16T05:33:06;0.10;99.90
5560;DHT22;2803;47.916;8.074;2023-03-16T05:35:33;0.00;99.90
5560;DHT22;2803;47.916;8.074;2023-03-16T05:37:59;0.10;99.90
5560;DHT22;2803;47.916;8.074;2023-03-16T05:40:28;0.20;99.90
5560;DHT22;2803;47.916;8.074;2023-03-16T05:42:56;0.40;99.90
5560;DHT22;2803;47.916;8.074;2023-03-16T05:45:24;0.60;99.90
5560;DHT22;2803;47.916;8.074;2023-03-16T05:47:51;0.70;99.90
5560;DHT22;2803;47.916;8.074;2023-03-16T05:50:19;0.40;99.90
5560;DHT22;2803;47.916;8.074;2023-03-16T05:52:46;0.70;99.90
5560;DHT22;2803;47.916;8.074;2023-03-16T05:55:15;0.40;99.90
5560;DHT22;2803;47.916;8.074;2023-03-16T05:57:43;0.50;99.90
5560;DHT22;2803;47.916;8.074;2023-03-16T06:00:12;0.50;99.90
5560;DHT22;2803;47.916;8.074;2023-03-16T06:02:41;0.80;99.90
5560;DHT22;2803;47.916;8.074;2023-03-16T06:05:08;0.80;99.90
5560;DHT22;2803;47.916;8.074;2023-03-16T06:07:35;0.50;99.90
5560;DHT22;2803;47.916;8.074;2023-03-16T06:10:03;0.60;99.90
5560;DHT22;2803;47.916;8.074;2023-03-16T06:12:30;0.90;99.90
5560;DHT22;2803;47.916;8.074;2023-03-16T06:14:58;1.40;99.90
5560;DHT22;2803;47.916;8.074;2023-03-16T06:17:24;1.70;99.90
5560;DHT22;2803;47.916;8.074;2023-03-16T06:19:51;1.70;99.90
5560;DHT22;2803;47.916;8.074;2023-03-16T06:22:18;1.60;99.90
5560;DHT22;2803;47.916;8.074;2023-03-16T06:24:44;1.60;99.90
5560;DHT22;2803;47.916;8.074;2023-03-16T06:27:11;1.60;99.90
5560;DHT22;2803;47.916;8.074;2023-03-16T06:29:38;2.20;99.90
5560;DHT22;2803;47.916;8.074;2023-03-16T06:32:06;2.00;99.90
5560;DHT22;2803;47.916;8.074;2023-03-16T06:34:33;1.60;99.90
5560;DHT22;2803;47.916;8.074;2023-03-16T06:36:59;2.20;99.90
5560;DHT22;2803;47.916;8.074;2023-03-16T06:39:26;2.50;99.90
5560;DHT22;2803;47.916;8.074;2023-03-16T06:41:52;2.80;99.90
5560;DHT22;2803;47.916;8.074;2023-03-16T06:44:19;2.50;99.90
5560;DHT22;2803;47.916;8.074;2023-03-16T06:46:46;2.30;99.90
5560;DHT22;2803;47.916;8.074;2023-03-16T06:49:14;2.30;99.90
5560;DHT22;2803;47.916;8.074;2023-03-16T06:51:41;2.20;99.90
5560;DHT22;2803;47.916;8.074;2023-03-16T06:54:07;2.20;99.90
5560;DHT22;2803;47.916;8.074;2023-03-16T06:56:34;2.20;99.90
5560;DHT22;2803;47.916;8.074;2023-03-16T06:59:00;2.30;99.90
5560;DHT22;2803;47.916;8.074;2023-03-16T07:01:27;2.60;99.90
5560;DHT22;2803;47.916;8.074;2023-03-16T07:03:54;2.80;99.90
5560;DHT22;2803;47.916;8.074;2023-03-16T07:06:23;2.90;99.90
5560;DHT22;2803;47.916;8.074;2023-03-16T07:08:49;2.80;99.90
5560;DHT22;2803;47.916;8.074;2023-03-16T07:11:16;2.80;99.90
5560;DHT22;2803;47.916;8.074;2023-03-16T07:13:43;2.80;99.90
5560;DHT22;2803;47.916;8.074;2023-03-16T07:16:09;2.80;99.90
5560;DHT22;2803;47.916;8.074;2023-03-16T07:18:36;3.20;99.90
5560;DHT22;2803;47.916;8.074;2023-03-16T07:21:04;3.70;99.90
5560;DHT22;2803;47.916;8.074;2023-03-16T07:23:32;3.40;99.90
5560;DHT22;2803;47.916;8.074;2023-03-16T07:25:59;3.00;99.90
5560;DHT22;2803;47.916;8.074;2023-03-16T07:28:26;3.20;99.90
5560;DHT22;2803;47.916;8.074;2023-03-16T07:30:54;3.70;99.90
5560;DHT22;2803;47.916;8.074;2023-03-16T07:33:20;3.60;99.90
5560;DHT22;2803;47.916;8.074;2023-03-16T07:35:47;3.70;99.90
5560;DHT22;2803;47.916;8.074;2023-03-16T07:38:13;3.60;99.90
5560;DHT22;2803;47.916;8.074;2023-03-16T07:40:41;3.60;99.90
5560;DHT22;2803;47.916;8.074;2023-03-16T07:43:08;3.80;99.90
5560;DHT22;2803;47.916;8.074;2023-03-16T07:45:34;3.80;99.90
5560;DHT22;2803;47.916;8.074;2023-03-16T07:48:01;3.70;99.90
5560;DHT22;2803;47.916;8.074;2023-03-16T07:50:28;3.90;99.90
5560;DHT22;2803;47.916;8.074;2023-03-16T07:52:54;4.00;99.90
5560;DHT22;2803;47.916;8.074;2023-03-16T07:55:21;4.00;99.90
5560;DHT22;2803;47.916;8.074;2023-03-16T07:57:49;4.00;99.90
5560;DHT22;2803;47.916;8.074;2023-03-16T08:00:16;4.30;99.90
5560;DHT22;2803;47.916;8.074;2023-03-16T08:02:48;4.40;99.90
5560;DHT22;2803;47.916;8.074;2023-03-16T08:05:15;4.80;99.90
5560;DHT22;2803;47.916;8.074;2023-03-16T08:07:42;4.90;99.90
5560;DHT22;2803;47.916;8.074;2023-03-16T08:10:09;5.30;99.90
5560;DHT22;2803;47.916;8.074;2023-03-16T08:12:36;5.40;99.90
5560;DHT22;2803;47.916;8.074;2023-03-16T08:15:05;5.60;99.90
5560;DHT22;2803;47.916;8.074;2023-03-16T08:17:31;5.80;99.90
5560;DHT22;2803;47.916;8.074;2023-03-16T08:19:58;5.80;99.90
5560;DHT22;2803;47.916;8.074;2023-03-16T08:22:25;6.10;99.90
5560;DHT22;2803;47.916;8.074;2023-03-16T08:24:51;6.20;99.90
5560;DHT22;2803;47.916;8.074;2023-03-16T08:27:18;6.30;99.90
5560;DHT22;2803;47.916;8.074;2023-03-16T08:29:46;6.50;99.90
5560;DHT22;2803;47.916;8.074;2023-03-16T08:32:14;6.60;99.90
5560;DHT22;2803;47.916;8.074;2023-03-16T08:34:41;6.80;99.90
5560;DHT22;2803;47.916;8.074;2023-03-16T08:37:08;7.00;99.90
5560;DHT22;2803;47.916;8.074;2023-03-16T08:39:36;7.30;99.90
5560;DHT22;2803;47.916;8.074;2023-03-16T08:42:02;7.50;99.90
5560;DHT22;2803;47.916;8.074;2023-03-16T08:44:29;7.60;99.90
5560;DHT22;2803;47.916;8.074;2023-03-16T08:46:57;7.60;99.90
5560;DHT22;2803;47.916;8.074;2023-03-16T08:49:25;7.40;99.90
5560;DHT22;2803;47.916;8.074;2023-03-16T08:51:53;7.40;99.90
5560;DHT22;2803;47.916;8.074;2023-03-16T08:54:19;7.70;99.90
5560;DHT22;2803;47.916;8.074;2023-03-16T08:56:46;7.90;99.90
5560;DHT22;2803;47.916;8.074;2023-03-16T08:59:13;8.10;99.90
5560;DHT22;2803;47.916;8.074;2023-03-16T09:01:39;7.90;99.90
5560;DHT22;2803;47.916;8.074;2023-03-16T09:04:06;8.50;99.90
5560;DHT22;2803;47.916;8.074;2023-03-16T09:06:34;8.80;99.90
5560;DHT22;2803;47.916;8.074;2023-03-16T09:09:01;9.30;99.90
5560;DHT22;2803;47.916;8.074;2023-03-16T09:11:29;9.50;99.90
5560;DHT22;2803;47.916;8.074;2023-03-16T09:13:58;9.30;99.90
5560;DHT22;2803;47.916;8.074;2023-03-16T09:16:25;9.40;99.90
5560;DHT22;2803;47.916;8.074;2023-03-16T09:18:52;9.80;99.90
5560;DHT22;2803;47.916;8.074;2023-03-16T09:21:20;9.80;99.90
5560;DHT22;2803;47.916;8.074;2023-03-16T09:23:49;10.30;99.90
5560;DHT22;2803;47.916;8.074;2023-03-16T09:26:15;10.70;99.90
5560;DHT22;2803;47.916;8.074;2023-03-16T09:28:42;11.40;99.90
5560;DHT22;2803;47.916;8.074;2023-03-16T09:31:14;11.40;99.90
5560;DHT22;2803;47.916;8.074;2023-03-16T09:33:42;11.30;99.90
5560;DHT22;2803;47.916;8.074;2023-03-16T09:36:08;11.10;99.90
5560;DHT22;2803;47.916;8.074;2023-03-16T09:38:36;11.20;99.90
5560;DHT22;2803;47.916;8.074;2023-03-16T09:41:08;11.10;99.40
5560;DHT22;2803;47.916;8.074;2023-03-16T09:43:46;11.10;98.70
5560;DHT22;2803;47.916;8.074;2023-03-16T09:46:21;11.10;98.60
5560;DHT22;2803;47.916;8.074;2023-03-16T09:48:50;11.70;98.40
5560;DHT22;2803;47.916;8.074;2023-03-16T09:51:21;11.80;97.50
5560;DHT22;2803;47.916;8.074;2023-03-16T09:53:50;11.70;96.90
5560;DHT22;2803;47.916;8.074;2023-03-16T09:56:27;11.70;95.80
5560;DHT22;2803;47.916;8.074;2023-03-16T09:58:54;12.10;96.30
5560;DHT22;2803;47.916;8.074;2023-03-16T10:01:28;12.20;95.00
5560;DHT22;2803;47.916;8.074;2023-03-16T10:04:09;12.50;94.10
5560;DHT22;2803;47.916;8.074;2023-03-16T10:06:42;12.70;93.90
5560;DHT22;2803;47.916;8.074;2023-03-16T10:09:20;13.10;92.80
5560;DHT22;2803;47.916;8.074;2023-03-16T10:11:54;12.80;91.10
5560;DHT22;2803;47.916;8.074;2023-03-16T10:14:25;13.00;91.00
5560;DHT22;2803;47.916;8.074;2023-03-16T10:16:56;13.30;88.90
5560;DHT22;2803;47.916;8.074;2023-03-16T10:19:32;13.50;89.60
5560;DHT22;2803;47.916;8.074;2023-03-16T10:22:02;13.80;87.70
5560;DHT22;2803;47.916;8.074;2023-03-16T10:24:41;14.20;87.80
5560;DHT22;2803;47.916;8.074;2023-03-16T10:27:17;14.80;85.50
5560;DHT22;2803;47.916;8.074;2023-03-16T10:29:45;14.00;84.00
5560;DHT22;2803;47.916;8.074;2023-03-16T10:32:15;14.50;86.40
5560;DHT22;2803;47.916;8.074;2023-03-16T10:34:46;14.90;81.90
5560;DHT22;2803;47.916;8.074;2023-03-16T10:37:13;14.90;83.10
5560;DHT22;2803;47.916;8.074;2023-03-16T10:39:40;14.90;81.20
5560;DHT22;2803;47.916;8.074;2023-03-16T10:42:14;15.30;78.40
5560;DHT22;2803;47.916;8.074;2023-03-16T10:44:42;14.90;79.20
5560;DHT22;2803;47.916;8.074;2023-03-16T10:47:16;14.90;79.80
5560;DHT22;2803;47.916;8.074;2023-03-16T10:49:44;14.40;77.60
5560;DHT22;2803;47.916;8.074;2023-03-16T10:52:17;13.90;79.10
5560;DHT22;2803;47.916;8.074;2023-03-16T10:54:49;13.90;78.90
5560;DHT22;2803;47.916;8.074;2023-03-16T10:57:23;14.10;81.60
5560;DHT22;2803;47.916;8.074;2023-03-16T10:59:52;14.80;80.20
5560;DHT22;2803;47.916;8.074;2023-03-16T11:02:21;15.80;79.40
5560;DHT22;2803;47.916;8.074;2023-03-16T11:04:48;16.20;71.90
5560;DHT22;2803;47.916;8.074;2023-03-16T11:07:15;16.30;71.90
5560;DHT22;2803;47.916;8.074;2023-03-16T11:09:42;17.00;70.20
5560;DHT22;2803;47.916;8.074;2023-03-16T11:12:12;17.40;72.30
5560;DHT22;2803;47.916;8.074;2023-03-16T11:14:43;18.00;68.50
5560;DHT22;2803;47.916;8.074;2023-03-16T11:17:13;18.60;66.20
5560;DHT22;2803;47.916;8.074;2023-03-16T11:19:46;18.10;64.60
5560;DHT22;2803;47.916;8.074;2023-03-16T11:22:18;17.20;64.40
5560;DHT22;2803;47.916;8.074;2023-03-16T11:24:49;17.40;64.70
5560;DHT22;2803;47.916;8.074;2023-03-16T11:27:21;17.50;66.50
5560;DHT22;2803;47.916;8.074;2023-03-16T11:30:04;17.50;61.50
5560;DHT22;2803;47.916;8.074;2023-03-16T11:32:35;17.40;63.10
5560;DHT22;2803;47.916;8.074;2023-03-16T11:35:05;18.00;62.10
5560;DHT22;2803;47.916;8.074;2023-03-16T11:37:50;18.40;61.50
5560;DHT22;2803;47.916;8.074;2023-03-16T11:40:34;18.80;62.50
5560;DHT22;2803;47.916;8.074;2023-03-16T11:43:15;19.50;59.80
5560;DHT22;2803;47.916;8.074;2023-03-16T11:45:50;19.80;60.00
5560;DHT22;2803;47.916;8.074;2023-03-16T11:48:28;20.20;60.60
5560;DHT22;2803;47.916;8.074;2023-03-16T11:51:03;20.90;58.80
5560;DHT22;2803;47.916;8.074;2023-03-16T11:53:41;20.80;55.70
5560;DHT22;2803;47.916;8.074;2023-03-16T11:56:17;19.80;56.70
5560;DHT22;2803;47.916;8.074;2023-03-16T11:58:57;20.40;57.20
5560;DHT22;2803;47.916;8.074;2023-03-16T12:01:34;20.20;56.20
5560;DHT22;2803;47.916;8.074;2023-03-16T12:04:15;20.80;54.70
5560;DHT22;2803;47.916;8.074;2023-03-16T12:06:52;21.30;55.50
5560;DHT22;2803;47.916;8.074;2023-03-16T12:09:45;21.30;54.50
5560;DHT22;2803;47.916;8.074;2023-03-16T12:12:26;20.80;53.10
5560;DHT22;2803;47.916;8.074;2023-03-16T12:15:07;20.60;54.50
5560;DHT22;2803;47.916;8.074;2023-03-16T12:17:38;20.70;54.50
5560;DHT22;2803;47.916;8.074;2023-03-16T12:20:14;20.10;53.00
5560;DHT22;2803;47.916;8.074;2023-03-16T12:22:44;19.40;54.60
5560;DHT22;2803;47.916;8.074;2023-03-16T12:25:16;19.40;54.90
5560;DHT22;2803;47.916;8.074;2023-03-16T12:27:45;19.00;55.30
5560;DHT22;2803;47.916;8.074;2023-03-16T12:30:23;18.60;54.80
5560;DHT22;2803;47.916;8.074;2023-03-16T12:32:56;19.10;56.90
5560;DHT22;2803;47.916;8.074;2023-03-16T12:35:33;18.90;55.20
5560;DHT22;2803;47.916;8.074;2023-03-16T12:38:18;18.70;53.80
5560;DHT22;2803;47.916;8.074;2023-03-16T12:40:54;18.50;54.40
5560;DHT22;2803;47.916;8.074;2023-03-16T12:43:35;17.60;55.40
5560;DHT22;2803;47.916;8.074;2023-03-16T12:46:07;17.40;55.60
5560;DHT22;2803;47.916;8.074;2023-03-16T12:48:40;17.10;56.70
5560;DHT22;2803;47.916;8.074;2023-03-16T12:51:09;16.60;59.20
5560;DHT22;2803;47.916;8.074;2023-03-16T12:53:41;16.80;58.00
5560;DHT22;2803;47.916;8.074;2023-03-16T12:56:10;16.50;59.20
5560;DHT22;2803;47.916;8.074;2023-03-16T12:58:41;16.70;59.00
5560;DHT22;2803;47.916;8.074;2023-03-16T13:01:10;16.90;57.10
5560;DHT22;2803;47.916;8.074;2023-03-16T13:03:40;17.10;58.20
5560;DHT22;2803;47.916;8.074;2023-03-16T13:06:16;17.20;57.60
5560;DHT22;2803;47.916;8.074;2023-03-16T13:08:47;16.60;56.50
5560;DHT22;2803;47.916;8.074;2023-03-16T13:11:15;16.80;57.80
5560;DHT22;2803;47.916;8.074;2023-03-16T13:13:51;17.30;57.30
5560;DHT22;2803;47.916;8.074;2023-03-16T13:16:24;17.70;56.90
5560;DHT22;2803;47.916;8.074;2023-03-16T13:18:53;17.70;57.50
5560;DHT22;2803;47.916;8.074;2023-03-16T13:21:21;17.40;58.80
5560;DHT22;2803;47.916;8.074;2023-03-16T13:24:00;17.80;58.40
5560;DHT22;2803;47.916;8.074;2023-03-16T13:26:39;18.50;59.80
5560;DHT22;2803;47.916;8.074;2023-03-16T13:29:19;18.90;57.70
5560;DHT22;2803;47.916;8.074;2023-03-16T13:31:48;17.90;56.10
5560;DHT22;2803;47.916;8.074;2023-03-16T13:34:21;18.70;56.20
5560;DHT22;2803;47.916;8.074;2023-03-16T13:36:53;19.20;54.90
5560;DHT22;2803;47.916;8.074;2023-03-16T13:39:22;19.90;56.10
5560;DHT22;2803;47.916;8.074;2023-03-16T13:41:57;20.20;53.20
5560;DHT22;2803;47.916;8.074;2023-03-16T13:44:25;20.50;57.10
5560;DHT22;2803;47.916;8.074;2023-03-16T13:46:52;20.50;57.20
5560;DHT22;2803;47.916;8.074;2023-03-16T13:49:20;19.80;55.00
5560;DHT22;2803;47.916;8.074;2023-03-16T13:51:47;19.80;55.30
5560;DHT22;2803;47.916;8.074;2023-03-16T13:54:20;19.90;55.30
5560;DHT22;2803;47.916;8.074;2023-03-16T13:56:48;19.90;57.50
5560;DHT22;2803;47.916;8.074;2023-03-16T13:59:15;20.30;54.10
5560;DHT22;2803;47.916;8.074;2023-03-16T14:01:44;20.30;54.70
5560;DHT22;2803;47.916;8.074;2023-03-16T14:04:12;19.30;54.60
5560;DHT22;2803;47.916;8.074;2023-03-16T14:06:52;18.90;55.30
5560;DHT22;2803;47.916;8.074;2023-03-16T14:09:23;19.10;55.70
5560;DHT22;2803;47.916;8.074;2023-03-16T14:11:51;19.30;56.50
5560;DHT22;2803;47.916;8.074;2023-03-16T14:14:23;19.20;56.50
5560;DHT22;2803;47.916;8.074;2023-03-16T14:16:51;19.00;57.00
5560;DHT22;2803;47.916;8.074;2023-03-16T14:19:20;19.00;57.30
5560;DHT22;2803;47.916;8.074;2023-03-16T14:21:49;18.80;56.20
5560;DHT22;2803;47.916;8.074;2023-03-16T14:24:26;18.40;56.10
5560;DHT22;2803;47.916;8.074;2023-03-16T14:26:55;18.60;57.40
5560;DHT22;2803;47.916;8.074;2023-03-16T14:29:24;18.80;54.90
5560;DHT22;2803;47.916;8.074;2023-03-16T14:31:52;19.10;55.70
5560;DHT22;2803;47.916;8.074;2023-03-16T14:34:27;19.20;55.20
5560;DHT22;2803;47.916;8.074;2023-03-16T14:37:04;18.80;55.00
5560;DHT22;2803;47.916;8.074;2023-03-16T14:39:33;18.90;57.80
5560;DHT22;2803;47.916;8.074;2023-03-16T14:42:02;18.40;54.50
5560;DHT22;2803;47.916;8.074;2023-03-16T14:44:30;18.10;56.20
5560;DHT22;2803;47.916;8.074;2023-03-16T14:46:58;18.80;55.10
5560;DHT22;2803;47.916;8.074;2023-03-16T14:49:28;18.10;55.20
5560;DHT22;2803;47.916;8.074;2023-03-16T14:51:58;18.30;56.90
5560;DHT22;2803;47.916;8.074;2023-03-16T14:54:27;18.30;56.10
5560;DHT22;2803;47.916;8.074;2023-03-16T14:57:00;18.30;56.30
5560;DHT22;2803;47.916;8.074;2023-03-16T14:59:28;18.10;56.10
5560;DHT22;2803;47.916;8.074;2023-03-16T15:01:55;17.80;57.10
5560;DHT22;2803;47.916;8.074;2023-03-16T15:04:25;17.30;57.50
5560;DHT22;2803;47.916;8.074;2023-03-16T15:06:52;16.80;59.10
5560;DHT22;2803;47.916;8.074;2023-03-16T15:09:30;17.10;58.80
5560;DHT22;2803;47.916;8.074;2023-03-16T15:12:01;16.20;58.90
5560;DHT22;2803;47.916;8.074;2023-03-16T15:14:27;15.80;59.50
5560;DHT22;2803;47.916;8.074;2023-03-16T15:17:08;15.70;61.30
5560;DHT22;2803;47.916;8.074;2023-03-16T15:19:35;15.60;61.70
5560;DHT22;2803;47.916;8.074;2023-03-16T15:22:02;15.20;62.90
5560;DHT22;2803;47.916;8.074;2023-03-16T15:24:30;15.70;64.30
5560;DHT22;2803;47.916;8.074;2023-03-16T15:26:57;15.90;66.40
5560;DHT22;2803;47.916;8.074;2023-03-16T15:29:25;16.00;65.80
5560;DHT22;2803;47.916;8.074;2023-03-16T15:31:52;16.00;63.00
5560;DHT22;2803;47.916;8.074;2023-03-16T15:34:18;15.60;66.80
5560;DHT22;2803;47.916;8.074;2023-03-16T15:36:46;16.10;68.40
5560;DHT22;2803;47.916;8.074;2023-03-16T15:39:20;16.20;69.40
5560;DHT22;2803;47.916;8.074;2023-03-16T15:41:48;16.20;74.40
5560;DHT22;2803;47.916;8.074;2023-03-16T15:44:14;15.60;75.10
5560;DHT22;2803;47.916;8.074;2023-03-16T15:46:42;15.30;77.40
5560;DHT22;2803;47.916;8.074;2023-03-16T15:49:09;15.10;76.80
5560;DHT22;2803;47.916;8.074;2023-03-16T15:51:36;14.80;74.70
5560;DHT22;2803;47.916;8.074;2023-03-16T15:54:04;15.00;79.70
5560;DHT22;2803;47.916;8.074;2023-03-16T15:56:35;14.90;82.60
5560;DHT22;2803;47.916;8.074;2023-03-16T15:59:05;14.80;83.20
5560;DHT22;2803;47.916;8.074;2023-03-16T16:01:38;14.50;85.90
5560;DHT22;2803;47.916;8.074;2023-03-16T16:04:12;14.50;87.20
5560;DHT22;2803;47.916;8.074;2023-03-16T16:06:40;14.30;88.60
5560;DHT22;2803;47.916;8.074;2023-03-16T16:09:07;13.80;88.20
5560;DHT22;2803;47.916;8.074;2023-03-16T16:11:34;14.00;90.30
5560;DHT22;2803;47.916;8.074;2023-03-16T16:14:01;14.10;90.70
5560;DHT22;2803;47.916;8.074;2023-03-16T16:16:28;13.70;90.70
5560;DHT22;2803;47.916;8.074;2023-03-16T16:18:56;13.70;91.50
5560;DHT22;2803;47.916;8.074;2023-03-16T16:21:26;13.80;91.40
5560;DHT22;2803;47.916;8.074;2023-03-16T16:23:53;13.40;92.10